map of NOU home
NOU - Airport
Location
City:  Nouméa, New Caledonia
Name:La Tontouta International Airport
ICAO:NWWW
IATA:NOU

Details
Type:Airport (Aerodrome, Airfield)
Use:International (customs port of entry)
Latitude:22°00'59"S (-22.016388)
Longitude:166°12'58"E (166.216111)
Elevation:52 ft (16 m)
Variation:12.33°E (WMM2015 magnetic declination)
0.03° annual change
Runways:3
Longest:10663 × 148 ft (3250 × 45 m), paved

Time
Time Zone:UTC+11
Local Time:

Weather
METAR:NWWW 210300Z AUTO 21009KT 170V260 9999 BKN042 26/14 Q1015 NOSIG
TAF:NWWW 202300Z 2100/2124 VRB03KT 9999 SCT040
BECMG 2100/2102 20010KT
BECMG 2106/2108 VRB03KT
BECMG 2122/2124 17012KT

Related Locations
Nearby:
Farthest:FGD: 12360 mi / 19891 km
Fderik, MR

Find:

   beyond  
but within

Other Information
Maps:
NOTAMs:
Links:
Sources:

  
flag of New Caledonia   

Sectional Chart

Flight Planning
at skyvector.com

Satellite Image

Google Maps Satellite view

 

Copyright © 2004-2017 Karl L. Swartz. All rights reserved.
The Great Circle Mapper name and logo are trademarks of the Great Circle Mapper.
All other trademarks mentioned herein belong to their respective owners.
Please see credits for attibutions and further copyright information.

  Follow gcmap on Facebook Follow gcmap on Twitter Follow gcmap on Google+ GCmap on LinkedIn

hCard Microformat

Geo Microformat